createdAt,value
2019-05-13T00:00:57.086Z,100.00
2019-05-13T00:03:27.093Z,100.00
2019-05-13T00:05:56.916Z,100.00
2019-05-13T00:08:26.833Z,100.00
2019-05-13T00:10:57.016Z,100.00
2019-05-13T00:13:26.870Z,100.00
2019-05-13T00:15:56.783Z,100.00
2019-05-13T00:18:26.810Z,100.00
2019-05-13T00:20:56.629Z,100.00
2019-05-13T00:23:26.536Z,100.00
2019-05-13T00:25:56.507Z,100.00
2019-05-13T00:28:26.373Z,100.00
2019-05-13T00:30:56.292Z,100.00
2019-05-13T00:33:26.253Z,100.00
2019-05-13T00:35:56.123Z,100.00
2019-05-13T00:38:25.935Z,100.00
2019-05-13T00:40:55.710Z,100.00
2019-05-13T00:43:25.491Z,100.00
2019-05-13T00:45:55.476Z,100.00
2019-05-13T00:48:25.325Z,100.00
2019-05-13T00:50:55.218Z,100.00
2019-05-13T00:53:26.473Z,100.00
2019-05-13T00:55:56.175Z,100.00
2019-05-13T00:58:26.016Z,100.00
2019-05-13T01:00:55.986Z,100.00
2019-05-13T01:03:28.341Z,100.00
2019-05-13T01:05:57.544Z,100.00
2019-05-13T01:08:27.195Z,100.00
2019-05-13T01:10:57.033Z,100.00
2019-05-13T01:13:26.970Z,100.00
2019-05-13T01:15:56.879Z,100.00
2019-05-13T01:18:26.931Z,100.00
2019-05-13T01:20:56.582Z,100.00
2019-05-13T01:23:26.398Z,100.00
2019-05-13T01:25:56.355Z,100.00
2019-05-13T01:28:26.220Z,100.00
2019-05-13T01:30:56.168Z,100.00
2019-05-13T01:33:25.995Z,100.00
2019-05-13T01:35:55.689Z,100.00
2019-05-13T01:38:25.504Z,100.00
2019-05-13T01:40:55.468Z,100.00
2019-05-13T01:43:25.338Z,100.00
2019-05-13T01:45:55.297Z,100.00
2019-05-13T01:48:25.279Z,100.00
2019-05-13T01:50:55.088Z,100.00
2019-05-13T01:53:25.060Z,100.00
2019-05-13T01:55:55.025Z,100.00
2019-05-13T01:58:24.843Z,100.00
2019-05-13T02:00:55.433Z,100.00
2019-05-13T02:03:25.365Z,100.00
2019-05-13T02:05:55.188Z,100.00
2019-05-13T02:08:25.100Z,100.00
2019-05-13T02:10:56.197Z,100.00
2019-05-13T02:13:26.320Z,100.00
2019-05-13T02:15:56.513Z,100.00
2019-05-13T02:18:26.457Z,100.00
2019-05-13T02:20:56.368Z,100.00
2019-05-13T02:23:26.244Z,100.00
2019-05-13T02:25:56.312Z,100.00
2019-05-13T02:28:25.978Z,100.00
2019-05-13T02:30:56.988Z,100.00
2019-05-13T02:33:26.937Z,100.00
2019-05-13T02:35:56.854Z,100.00
2019-05-13T02:38:30.605Z,100.00
2019-05-13T02:40:58.454Z,100.00
2019-05-13T02:43:28.779Z,100.00
2019-05-13T02:45:58.624Z,100.00
2019-05-13T02:48:28.295Z,100.00
2019-05-13T02:50:58.039Z,100.00
2019-05-13T02:53:28.070Z,100.00
2019-05-13T02:55:57.849Z,100.00
2019-05-13T02:58:27.763Z,100.00
2019-05-13T03:00:57.725Z,100.00
2019-05-13T03:03:27.374Z,100.00
2019-05-13T03:05:57.289Z,100.00
2019-05-13T03:08:44.994Z,100.00
2019-05-13T03:10:58.764Z,100.00
2019-05-13T03:13:28.671Z,100.00
2019-05-13T03:16:12.809Z,100.00
2019-05-13T03:18:43.607Z,100.00
2019-05-13T03:21:13.133Z,100.00
2019-05-13T03:23:44.359Z,100.00
2019-05-13T03:26:14.364Z,100.00
2019-05-13T03:28:45.425Z,100.00
2019-05-13T03:31:17.559Z,100.00
2019-05-13T03:33:47.702Z,100.00
2019-05-13T03:36:18.218Z,100.00
2019-05-13T03:39:01.602Z,100.00
2019-05-13T03:41:22.428Z,100.00
2019-05-13T03:43:53.630Z,100.00
2019-05-13T03:46:24.513Z,100.00
2019-05-13T03:48:55.294Z,100.00
2019-05-13T03:51:25.401Z,100.00
2019-05-13T03:53:55.296Z,100.00
2019-05-13T03:56:25.484Z,100.00
2019-05-13T03:58:55.714Z,100.00
2019-05-13T04:01:25.659Z,100.00
2019-05-13T04:03:55.662Z,100.00
2019-05-13T04:06:25.396Z,100.00
2019-05-13T04:09:15.847Z,100.00
2019-05-13T04:11:28.238Z,100.00
2019-05-13T04:13:58.018Z,100.00
2019-05-13T04:16:28.036Z,100.00
2019-05-13T04:18:57.913Z,100.00
2019-05-13T04:21:27.894Z,100.00
2019-05-13T04:23:57.805Z,100.00
2019-05-13T04:26:32.111Z,100.00
2019-05-13T04:29:03.147Z,100.00
2019-05-13T04:31:33.443Z,100.00
2019-05-13T04:34:03.641Z,100.00
2019-05-13T04:36:33.683Z,100.00
2019-05-13T04:39:04.969Z,100.00
2019-05-13T04:41:36.465Z,100.00
2019-05-13T04:44:06.241Z,100.00
2019-05-13T04:46:36.096Z,100.00
2019-05-13T04:49:05.984Z,100.00
2019-05-13T04:51:35.803Z,100.00
2019-05-13T04:54:07.264Z,100.00
2019-05-13T04:56:37.056Z,100.00
2019-05-13T04:59:06.859Z,100.00
2019-05-13T05:02:04.935Z,99.31
2019-05-13T05:04:45.425Z,98.60
2019-05-13T05:07:43.753Z,99.52
2019-05-13T05:10:57.762Z,100.00
2019-05-13T05:13:44.568Z,100.00
2019-05-13T05:16:56.276Z,100.00
2019-05-13T05:20:06.647Z,99.98
2019-05-13T05:23:02.558Z,100.00
2019-05-13T05:25:55.409Z,99.72
2019-05-13T05:29:15.875Z,100.00
2019-05-13T05:32:26.398Z,100.00
2019-05-13T05:35:39.773Z,99.99
2019-05-13T05:38:43.380Z,97.70
2019-05-13T05:41:16.098Z,95.18
2019-05-13T05:43:47.063Z,94.30
2019-05-13T05:46:19.061Z,94.46
2019-05-13T05:48:52.978Z,94.63
2019-05-13T05:51:24.833Z,93.62
2019-05-13T05:53:56.753Z,92.24
2019-05-13T05:56:29.342Z,91.53
2019-05-13T05:59:02.946Z,91.90
2019-05-13T06:01:37.060Z,91.64
2019-05-13T06:04:05.457Z,90.31
2019-05-13T06:06:35.530Z,89.04
2019-05-13T06:09:06.506Z,87.61
2019-05-13T06:11:37.202Z,86.47
2019-05-13T06:14:06.945Z,86.25
2019-05-13T06:16:37.065Z,85.42
2019-05-13T06:19:12.025Z,84.63
2019-05-13T06:21:42.023Z,82.80
2019-05-13T06:24:12.105Z,82.94
2019-05-13T06:26:42.207Z,83.34
2019-05-13T06:29:12.058Z,82.62
2019-05-13T06:31:44.144Z,81.60
2019-05-13T06:34:14.161Z,81.03
2019-05-13T06:36:43.869Z,81.19
2019-05-13T06:39:13.732Z,81.43
2019-05-13T06:41:43.502Z,81.19
2019-05-13T06:44:13.320Z,82.36
2019-05-13T06:46:43.285Z,81.71
2019-05-13T06:49:13.143Z,80.66
2019-05-13T06:51:43.086Z,80.22
2019-05-13T06:54:12.835Z,78.64
2019-05-13T06:56:42.959Z,78.52
2019-05-13T06:59:12.696Z,77.66
2019-05-13T07:01:42.637Z,77.50
2019-05-13T07:04:12.872Z,77.66
2019-05-13T07:06:42.627Z,77.06
2019-05-13T07:09:12.468Z,77.78
2019-05-13T07:11:42.494Z,78.19
2019-05-13T07:14:12.829Z,78.44
2019-05-13T07:16:42.800Z,79.74
2019-05-13T07:19:12.536Z,81.46
2019-05-13T07:21:42.293Z,80.80
2019-05-13T07:24:12.985Z,79.10
2019-05-13T07:26:42.869Z,78.24
2019-05-13T07:29:13.604Z,76.40
2019-05-13T07:31:43.939Z,75.43
2019-05-13T07:34:13.834Z,77.29
2019-05-13T07:36:44.383Z,78.38
2019-05-13T07:39:15.415Z,78.47
2019-05-13T07:41:45.403Z,80.84
2019-05-13T07:44:15.270Z,81.26
2019-05-13T07:46:45.500Z,81.25
2019-05-13T07:49:15.519Z,81.90
2019-05-13T07:51:45.716Z,81.90
2019-05-13T07:54:15.437Z,80.18
2019-05-13T07:56:46.442Z,79.12
2019-05-13T07:59:16.390Z,78.01
2019-05-13T08:01:46.517Z,76.51
2019-05-13T08:04:22.299Z,75.56
2019-05-13T08:06:48.076Z,76.93
2019-05-13T08:09:18.023Z,75.67
2019-05-13T08:12:02.185Z,75.48
2019-05-13T08:14:21.636Z,75.67
2019-05-13T08:16:51.799Z,74.15
2019-05-13T08:19:21.981Z,74.36
2019-05-13T08:21:51.897Z,73.43
2019-05-13T08:24:22.590Z,72.90
2019-05-13T08:26:53.237Z,71.25
2019-05-13T08:29:23.332Z,71.20
2019-05-13T08:31:53.389Z,70.66
2019-05-13T08:34:24.953Z,69.43
2019-05-13T08:36:54.785Z,69.01
2019-05-13T08:39:26.902Z,68.60
2019-05-13T08:42:04.156Z,67.36
2019-05-13T08:44:27.592Z,69.18
2019-05-13T08:46:59.072Z,70.16
2019-05-13T08:49:28.994Z,69.14
2019-05-13T08:52:01.383Z,68.72
2019-05-13T08:54:32.956Z,68.76
2019-05-13T08:57:02.984Z,67.70
2019-05-13T08:59:33.044Z,67.90
2019-05-13T09:02:03.538Z,67.47
2019-05-13T09:04:33.787Z,66.71
2019-05-13T09:07:04.312Z,66.14
2019-05-13T09:09:34.456Z,65.26
2019-05-13T09:12:04.240Z,64.79
2019-05-13T09:14:34.073Z,63.27
2019-05-13T09:17:03.934Z,63.27
2019-05-13T09:19:33.792Z,64.38
2019-05-13T09:22:03.847Z,66.50
2019-05-13T09:24:37.619Z,68.25
2019-05-13T09:27:05.408Z,69.03
2019-05-13T09:29:35.284Z,69.13
2019-05-13T09:32:05.105Z,69.21
2019-05-13T09:34:35.053Z,70.37
2019-05-13T09:37:04.922Z,70.10
2019-05-13T09:39:36.063Z,69.46
2019-05-13T09:42:06.012Z,70.61
2019-05-13T09:44:35.837Z,72.25
2019-05-13T09:47:05.699Z,70.98
2019-05-13T09:49:35.567Z,71.13
2019-05-13T09:52:06.713Z,70.46
2019-05-13T09:54:37.897Z,70.07
2019-05-13T09:57:08.008Z,70.37
2019-05-13T09:59:37.791Z,69.36
2019-05-13T10:02:07.758Z,69.15
2019-05-13T10:04:37.545Z,69.72
2019-05-13T10:07:07.454Z,70.05
2019-05-13T10:09:38.626Z,69.89
2019-05-13T10:12:08.479Z,69.89
2019-05-13T10:14:38.345Z,69.35
2019-05-13T10:17:08.626Z,69.25
2019-05-13T10:19:38.454Z,69.27
2019-05-13T10:22:08.421Z,69.29
2019-05-13T10:24:38.522Z,69.24
2019-05-13T10:27:12.199Z,67.14
2019-05-13T10:29:42.827Z,63.90
2019-05-13T10:32:13.383Z,64.93
2019-05-13T10:34:44.036Z,63.44
2019-05-13T10:37:14.048Z,62.59
2019-05-13T10:39:45.862Z,61.32
2019-05-13T10:42:15.592Z,64.37
2019-05-13T10:44:45.207Z,65.68
2019-05-13T10:47:15.080Z,63.92
2019-05-13T10:49:45.063Z,63.07
2019-05-13T10:52:14.873Z,62.79
2019-05-13T10:54:44.835Z,63.74
2019-05-13T10:57:14.679Z,65.22
2019-05-13T10:59:44.610Z,66.45
2019-05-13T11:02:14.560Z,66.73
2019-05-13T11:04:44.344Z,69.45
2019-05-13T11:07:14.267Z,69.45
2019-05-13T11:09:45.365Z,68.62
2019-05-13T11:12:15.208Z,68.62
2019-05-13T11:14:46.749Z,67.23
2019-05-13T11:17:16.736Z,66.24
2019-05-13T11:19:46.453Z,63.37
2019-05-13T11:22:16.212Z,67.82
2019-05-13T11:24:47.385Z,67.82
2019-05-13T11:27:17.491Z,69.25
2019-05-13T11:29:47.505Z,69.14
2019-05-13T11:32:18.588Z,69.24
2019-05-13T11:34:48.577Z,69.89
2019-05-13T11:37:18.388Z,68.45
2019-05-13T11:39:48.363Z,68.45
2019-05-13T11:42:18.110Z,65.58
2019-05-13T11:44:48.024Z,65.12
2019-05-13T11:47:19.439Z,64.84
2019-05-13T11:49:51.413Z,66.82
2019-05-13T11:52:22.632Z,67.41
2019-05-13T11:54:53.775Z,67.85
2019-05-13T11:57:24.193Z,68.14
2019-05-13T11:59:54.071Z,68.14
2019-05-13T12:02:23.820Z,67.51
2019-05-13T12:04:54.001Z,67.83
2019-05-13T12:07:23.847Z,67.97
2019-05-13T12:09:53.664Z,66.53
2019-05-13T12:12:30.513Z,67.19
2019-05-13T12:15:22.264Z,66.93
2019-05-13T12:17:27.849Z,65.96
2019-05-13T12:19:57.703Z,65.93
2019-05-13T12:22:27.327Z,63.08
2019-05-13T12:24:57.198Z,62.52
2019-05-13T12:27:26.872Z,59.81
2019-05-13T12:29:56.769Z,60.17
2019-05-13T12:32:26.739Z,58.54
2019-05-13T12:34:57.317Z,57.39
2019-05-13T12:37:27.034Z,57.30
2019-05-13T12:39:56.917Z,59.59
2019-05-13T12:42:26.786Z,58.09
2019-05-13T12:45:08.142Z,55.98
2019-05-13T12:47:28.227Z,56.53
2019-05-13T12:49:58.244Z,52.48
2019-05-13T12:52:28.132Z,53.81
2019-05-13T12:54:58.195Z,56.85
2019-05-13T12:57:28.132Z,56.63
2019-05-13T12:59:58.003Z,60.37
2019-05-13T13:02:27.867Z,61.19
2019-05-13T13:07:29.377Z,58.63
2019-05-13T13:09:59.055Z,60.11
2019-05-13T13:12:34.639Z,59.42
2019-05-13T13:15:20.399Z,62.54
2019-05-13T13:17:31.940Z,62.46
2019-05-13T13:20:08.800Z,62.78
2019-05-13T13:22:33.016Z,61.37
2019-05-13T13:28:00.021Z,54.84
2019-05-13T13:30:08.471Z,56.04
2019-05-13T13:32:38.836Z,55.79
2019-05-13T13:35:08.859Z,52.97
2019-05-13T13:37:45.467Z,52.77
2019-05-13T13:40:11.376Z,52.59
2019-05-13T13:42:43.359Z,53.28
2019-05-13T13:45:13.279Z,54.54
2019-05-13T13:47:45.336Z,53.92
2019-05-13T13:50:15.833Z,51.80
2019-05-13T13:52:45.945Z,53.26
2019-05-13T13:55:16.631Z,52.45
2019-05-13T13:57:46.452Z,53.22
2019-05-13T14:00:32.715Z,56.33
2019-05-13T14:02:48.168Z,56.86
2019-05-13T14:05:18.139Z,52.42
2019-05-13T14:07:09.128Z,58.72
2019-05-13T14:07:09.607Z,57.31
2019-05-13T14:07:47.921Z,50.19
2019-05-13T14:10:18.510Z,56.00
2019-05-13T14:12:48.393Z,59.33
2019-05-13T14:15:18.604Z,62.57
2019-05-13T14:17:48.515Z,64.90
2019-05-13T14:20:21.934Z,67.53
2019-05-13T14:22:57.497Z,67.53
2019-05-13T14:25:22.979Z,69.72
2019-05-13T14:27:52.919Z,70.03
2019-05-13T14:30:22.987Z,71.31
2019-05-13T14:32:53.139Z,72.10
2019-05-13T14:35:24.205Z,72.35
2019-05-13T14:37:53.863Z,72.70
2019-05-13T14:40:25.343Z,72.80
2019-05-13T14:42:55.264Z,72.50
2019-05-13T14:45:25.354Z,72.22
2019-05-13T14:47:55.194Z,70.15
2019-05-13T14:50:25.267Z,66.71
2019-05-13T14:52:55.030Z,65.18
2019-05-13T14:55:25.043Z,66.15
2019-05-13T14:57:54.918Z,66.96
2019-05-13T15:00:25.468Z,66.60
2019-05-13T15:02:55.205Z,67.33
2019-05-13T15:05:25.163Z,68.11
2019-05-13T15:07:54.915Z,68.06
2019-05-13T15:10:24.906Z,68.94
2019-05-13T15:12:54.969Z,69.50
2019-05-13T15:15:24.868Z,70.13
2019-05-13T15:17:54.664Z,71.03
2019-05-13T15:20:24.664Z,71.03
2019-05-13T15:22:54.442Z,72.18
2019-05-13T15:25:24.386Z,71.95
2019-05-13T15:27:54.997Z,71.27
2019-05-13T15:30:24.790Z,71.14
2019-05-13T15:32:54.986Z,72.36
2019-05-13T15:35:24.845Z,73.95
2019-05-13T15:37:56.459Z,74.36
2019-05-13T15:40:26.258Z,76.02
2019-05-13T15:42:57.532Z,76.51
2019-05-13T15:45:27.382Z,77.48
2019-05-13T15:47:57.219Z,77.65
2019-05-13T15:50:27.154Z,78.37
2019-05-13T15:52:57.012Z,78.87
2019-05-13T15:55:26.939Z,78.88
2019-05-13T15:57:56.689Z,78.54
2019-05-13T16:00:26.562Z,78.40
2019-05-13T16:02:56.344Z,78.83
2019-05-13T16:05:26.260Z,78.98
2019-05-13T16:07:57.236Z,78.27
2019-05-13T16:10:27.005Z,79.09
2019-05-13T16:12:56.854Z,79.49
2019-05-13T16:15:26.917Z,79.75
2019-05-13T16:17:56.683Z,79.74
2019-05-13T16:20:26.699Z,78.96
2019-05-13T16:22:57.971Z,79.97
2019-05-13T16:25:27.663Z,80.48
2019-05-13T16:27:57.446Z,82.24
2019-05-13T16:30:28.533Z,81.77
2019-05-13T16:32:58.424Z,82.66
2019-05-13T16:35:28.335Z,83.94
2019-05-13T16:37:58.318Z,85.58
2019-05-13T16:40:28.175Z,86.23
2019-05-13T16:42:58.116Z,86.90
2019-05-13T16:45:28.055Z,88.33
2019-05-13T16:47:59.286Z,88.70
2019-05-13T16:50:31.289Z,88.79
2019-05-13T16:53:01.896Z,89.39
2019-05-13T16:55:32.768Z,90.46
2019-05-13T16:58:03.983Z,90.36
2019-05-13T17:00:33.862Z,90.18
2019-05-13T17:03:04.229Z,90.00
2019-05-13T17:05:35.575Z,89.61
2019-05-13T17:08:05.977Z,89.03
2019-05-13T17:10:35.709Z,89.64
2019-05-13T17:13:05.670Z,90.71
2019-05-13T17:15:35.644Z,91.26
2019-05-13T17:18:11.766Z,91.48
2019-05-13T17:20:37.246Z,92.19
2019-05-13T17:23:07.011Z,92.76
2019-05-13T17:25:36.940Z,93.20
2019-05-13T17:28:07.017Z,93.64
2019-05-13T17:30:36.861Z,92.86
2019-05-13T17:33:06.661Z,92.31
2019-05-13T17:35:36.649Z,91.91
2019-05-13T17:38:06.514Z,92.06
2019-05-13T17:40:36.445Z,92.46
2019-05-13T17:43:06.304Z,92.62
2019-05-13T17:45:36.283Z,92.31
2019-05-13T17:48:06.136Z,92.11
2019-05-13T17:50:35.978Z,92.47
2019-05-13T17:53:07.185Z,92.70
2019-05-13T17:55:37.054Z,92.98
2019-05-13T17:58:07.005Z,93.69
2019-05-13T18:00:37.027Z,94.03
2019-05-13T18:03:06.908Z,93.93
2019-05-13T18:05:36.762Z,93.71
2019-05-13T18:08:06.686Z,94.21
2019-05-13T18:10:36.458Z,93.75
2019-05-13T18:13:06.477Z,94.24
2019-05-13T18:15:36.445Z,95.59
2019-05-13T18:18:06.520Z,97.37
2019-05-13T18:20:37.717Z,97.57
2019-05-13T18:23:07.493Z,98.21
2019-05-13T18:25:37.371Z,98.04
2019-05-13T18:28:08.589Z,98.17
2019-05-13T18:30:41.073Z,99.41
2019-05-13T18:33:11.770Z,99.66
2019-05-13T18:35:42.821Z,99.95
2019-05-13T18:38:13.744Z,99.78
2019-05-13T18:40:43.656Z,99.76
2019-05-13T18:43:13.712Z,99.45
2019-05-13T18:45:43.509Z,100.00
2019-05-13T18:48:13.312Z,100.00
2019-05-13T18:50:43.008Z,100.00
2019-05-13T18:53:14.229Z,100.00
2019-05-13T18:55:43.976Z,100.00
2019-05-13T18:58:13.784Z,100.00
2019-05-13T19:00:43.757Z,100.00
2019-05-13T19:03:13.784Z,100.00
2019-05-13T19:05:43.758Z,100.00
2019-05-13T19:08:14.972Z,100.00
2019-05-13T19:10:45.407Z,100.00
2019-05-13T19:13:15.352Z,100.00
2019-05-13T19:15:45.541Z,100.00
2019-05-13T19:18:15.524Z,100.00
2019-05-13T19:20:46.665Z,100.00
2019-05-13T19:23:16.644Z,100.00
2019-05-13T19:25:46.431Z,100.00
2019-05-13T19:28:18.837Z,100.00
2019-05-13T19:30:48.707Z,100.00
2019-05-13T19:33:18.584Z,100.00
2019-05-13T19:35:48.417Z,100.00
2019-05-13T19:38:18.290Z,100.00
2019-05-13T19:40:48.225Z,100.00
2019-05-13T19:43:19.161Z,100.00
2019-05-13T19:45:48.959Z,100.00
2019-05-13T19:48:18.800Z,100.00
2019-05-13T19:50:48.744Z,100.00
2019-05-13T19:53:18.756Z,100.00
2019-05-13T19:55:48.532Z,100.00
2019-05-13T19:58:18.586Z,100.00
2019-05-13T20:00:48.583Z,100.00
2019-05-13T20:03:18.398Z,100.00
2019-05-13T20:05:48.383Z,100.00
2019-05-13T20:08:18.275Z,100.00
2019-05-13T20:10:48.030Z,100.00
2019-05-13T20:13:19.246Z,100.00
2019-05-13T20:15:49.100Z,100.00
2019-05-13T20:18:19.004Z,100.00
2019-05-13T20:20:51.857Z,100.00
2019-05-13T20:23:21.764Z,100.00
2019-05-13T20:25:54.499Z,100.00
2019-05-13T20:28:25.565Z,100.00
2019-05-13T20:30:55.367Z,100.00
2019-05-13T20:33:25.175Z,100.00
2019-05-13T20:35:56.007Z,100.00
2019-05-13T20:38:25.721Z,100.00
2019-05-13T20:40:55.532Z,100.00
2019-05-13T20:43:25.513Z,100.00
2019-05-13T20:45:55.377Z,100.00
2019-05-13T20:48:25.224Z,100.00
2019-05-13T20:50:54.968Z,100.00
2019-05-13T20:53:24.916Z,100.00
2019-05-13T20:55:55.004Z,100.00
2019-05-13T20:58:24.582Z,100.00
2019-05-13T21:00:54.350Z,100.00
2019-05-13T21:03:24.308Z,100.00
2019-05-13T21:05:54.199Z,100.00
2019-05-13T21:08:24.120Z,100.00
2019-05-13T21:10:54.086Z,100.00
2019-05-13T21:13:23.923Z,100.00
2019-05-13T21:15:53.658Z,100.00
2019-05-13T21:18:23.660Z,100.00
2019-05-13T21:20:53.706Z,100.00
2019-05-13T21:23:23.581Z,100.00
2019-05-13T21:25:54.764Z,100.00
2019-05-13T21:28:24.691Z,100.00
2019-05-13T21:30:54.556Z,100.00
2019-05-13T21:33:24.502Z,100.00
2019-05-13T21:35:54.317Z,100.00
2019-05-13T21:38:24.029Z,100.00
2019-05-13T21:40:53.906Z,100.00
2019-05-13T21:43:23.723Z,100.00
2019-05-13T21:45:53.593Z,100.00
2019-05-13T21:48:23.547Z,100.00
2019-05-13T21:50:53.448Z,100.00
2019-05-13T21:53:24.526Z,100.00
2019-05-13T21:55:54.520Z,100.00
2019-05-13T21:58:24.382Z,100.00
2019-05-13T22:00:55.650Z,100.00
2019-05-13T22:03:25.454Z,100.00
2019-05-13T22:05:55.367Z,100.00
2019-05-13T22:08:25.336Z,100.00
2019-05-13T22:10:55.201Z,100.00
2019-05-13T22:13:25.122Z,100.00
2019-05-13T22:15:55.089Z,100.00
2019-05-13T22:18:25.024Z,100.00
2019-05-13T22:20:54.784Z,100.00
2019-05-13T22:23:24.544Z,100.00
2019-05-13T22:25:54.409Z,100.00
2019-05-13T22:28:24.291Z,100.00
2019-05-13T22:30:54.139Z,100.00
2019-05-13T22:33:24.153Z,100.00
2019-05-13T22:35:54.075Z,100.00
2019-05-13T22:38:23.905Z,100.00
2019-05-13T22:40:54.010Z,100.00
2019-05-13T22:43:23.937Z,100.00
2019-05-13T22:45:53.861Z,100.00
2019-05-13T22:48:23.819Z,100.00
2019-05-13T22:50:53.696Z,100.00
2019-05-13T22:53:23.657Z,100.00
2019-05-13T22:55:53.628Z,100.00
2019-05-13T22:58:23.691Z,100.00
2019-05-13T23:00:53.457Z,100.00
2019-05-13T23:03:23.271Z,100.00
2019-05-13T23:05:53.337Z,100.00
2019-05-13T23:08:23.210Z,100.00
2019-05-13T23:10:53.232Z,100.00
2019-05-13T23:13:23.095Z,100.00
2019-05-13T23:15:52.856Z,100.00
2019-05-13T23:18:22.846Z,100.00
2019-05-13T23:20:52.716Z,100.00
2019-05-13T23:23:22.617Z,100.00
2019-05-13T23:25:52.587Z,100.00
2019-05-13T23:28:23.676Z,100.00
2019-05-13T23:30:53.467Z,100.00
2019-05-13T23:33:23.305Z,100.00
2019-05-13T23:35:53.369Z,100.00
2019-05-13T23:38:23.335Z,100.00
2019-05-13T23:40:53.151Z,100.00
2019-05-13T23:43:22.968Z,100.00
2019-05-13T23:45:52.942Z,100.00
2019-05-13T23:48:22.894Z,100.00
2019-05-13T23:50:52.717Z,100.00
2019-05-13T23:53:23.503Z,100.00
2019-05-13T23:55:53.391Z,100.00
2019-05-13T23:58:23.267Z,100.00
